Time;durP1;ratioP1;P1;durP2;ratioP2;P2;SDS_P1;SDS_P2;PMS_P1;PMS_P2;Temp;Humidity;BMP_temperature;BMP_pressure;BME280_temperature;BME280_humidity;BME280_pressure;Samples;Min_cycle;Max_cycle;Signal;HPM_P1;HPM_P2
2022/04/12 00:01:19;;;;;;;5.30;3.90;;;8.60;99.90;;;;;;5025107;28;20445;-72
2022/04/12 00:04:05;;;;;;;5.67;3.60;;;8.50;99.90;;;;;;5027516;28;20457;-72
2022/04/12 00:06:51;;;;;;;6.77;3.47;;;8.50;99.90;;;;;;5029499;28;20451;-72
2022/04/12 00:09:37;;;;;;;6.27;3.77;;;8.50;99.90;;;;;;5028705;28;20470;-72
2022/04/12 00:12:24;;;;;;;4.60;3.07;;;8.50;99.90;;;;;;5050569;22;20624;-72
2022/04/12 00:15:11;;;;;;;6.10;4.20;;;8.50;99.90;;;;;;5011920;28;20420;-73
2022/04/12 00:21:01;;;;;;;6.27;4.03;;;8.40;99.90;;;;;;5009815;28;20449;-72
2022/04/12 00:23:47;;;;;;;5.70;3.80;;;8.30;99.90;;;;;;5016808;28;20454;-73
2022/04/12 00:26:34;;;;;;;4.93;3.50;;;8.30;99.90;;;;;;5014527;28;20446;-70
2022/04/12 00:29:21;;;;;;;6.30;4.07;;;8.20;99.90;;;;;;5016478;28;20448;-70
2022/04/12 00:32:08;;;;;;;5.23;3.57;;;8.30;99.90;;;;;;5009477;28;20421;-69
2022/04/12 00:34:53;;;;;;;7.00;3.83;;;8.20;99.90;;;;;;5010531;28;20452;-70
2022/04/12 00:37:39;;;;;;;6.90;3.50;;;8.10;99.90;;;;;;5014104;28;20465;-69
2022/04/12 00:40:26;;;;;;;6.13;3.63;;;8.10;99.90;;;;;;5007877;28;20450;-70
2022/04/12 00:43:12;;;;;;;6.77;3.93;;;8.00;99.90;;;;;;5007678;28;20491;-71
2022/04/12 00:46:00;;;;;;;5.80;3.60;;;8.00;99.90;;;;;;5012120;28;20416;-70
2022/04/12 00:48:45;;;;;;;6.00;3.90;;;7.90;99.90;;;;;;5011304;28;20446;-72
2022/04/12 00:51:31;;;;;;;7.23;3.70;;;8.00;99.90;;;;;;5003457;28;20418;-71
2022/04/12 00:54:19;;;;;;;5.63;4.00;;;7.90;99.90;;;;;;5010186;28;20878;-71
2022/04/12 00:57:06;;;;;;;6.20;3.90;;;8.00;99.90;;;;;;5008648;28;20803;-71
2022/04/12 00:59:54;;;;;;;5.37;3.40;;;7.90;99.90;;;;;;5006816;28;20516;-71
2022/04/12 01:02:42;;;;;;;4.20;3.23;;;7.90;99.90;;;;;;5012836;28;20465;-70
2022/04/12 01:05:28;;;;;;;7.77;3.87;;;7.90;99.90;;;;;;5006438;28;20450;-70
2022/04/12 01:08:13;;;;;;;6.97;3.57;;;7.90;99.90;;;;;;5008324;28;21135;-72
2022/04/12 01:11:04;;;;;;;5.63;3.73;;;7.80;99.90;;;;;;5004267;28;20778;-70
2022/04/12 01:13:49;;;;;;;5.07;3.90;;;7.80;99.90;;;;;;5011062;28;21075;-70
2022/04/12 01:16:35;;;;;;;5.47;3.40;;;7.90;99.90;;;;;;5011167;28;20466;-70
2022/04/12 01:19:22;;;;;;;8.00;4.30;;;7.80;99.90;;;;;;5004212;28;21018;-70
2022/04/12 01:22:13;;;;;;;6.37;4.00;;;7.80;99.90;;;;;;5016665;28;20532;-69
2022/04/12 01:25:00;;;;;;;6.63;3.83;;;7.80;99.90;;;;;;5015004;28;20442;-70
2022/04/12 01:27:45;;;;;;;7.37;3.90;;;7.80;99.90;;;;;;5010911;28;20535;-69
2022/04/12 01:30:31;;;;;;;5.10;3.70;;;7.80;99.90;;;;;;5004328;28;20473;-70
2022/04/12 01:33:16;;;;;;;4.47;3.47;;;7.70;99.90;;;;;;5011185;28;20436;-72
2022/04/12 01:36:03;;;;;;;5.80;3.40;;;7.60;99.90;;;;;;5011285;28;20442;-72
2022/04/12 01:38:48;;;;;;;4.77;3.87;;;7.70;99.90;;;;;;5009012;28;20448;-70
2022/04/12 01:41:35;;;;;;;9.00;3.60;;;7.70;99.90;;;;;;5006206;28;20454;-69
2022/04/12 01:44:21;;;;;;;6.67;3.50;;;7.70;99.90;;;;;;5007576;28;20437;-70
2022/04/12 01:47:07;;;;;;;5.57;3.77;;;7.60;99.90;;;;;;5011992;28;20445;-70
2022/04/12 01:49:53;;;;;;;4.20;3.17;;;7.50;99.90;;;;;;5007653;28;20464;-70
2022/04/12 01:52:39;;;;;;;7.17;4.03;;;7.60;99.90;;;;;;5014404;28;20999;-70
2022/04/12 01:55:25;;;;;;;7.57;3.30;;;7.60;99.90;;;;;;5009004;28;21036;-69
2022/04/12 01:58:12;;;;;;;6.00;3.87;;;7.60;99.90;;;;;;5006749;28;20446;-70
2022/04/12 02:00:58;;;;;;;9.73;4.40;;;7.50;99.90;;;;;;5007438;28;20442;-70
2022/04/12 02:03:43;;;;;;;3.93;3.23;;;7.60;99.90;;;;;;5011534;28;20564;-69
2022/04/12 02:06:29;;;;;;;8.03;4.03;;;7.60;99.90;;;;;;5016273;28;20810;-69
2022/04/12 02:09:15;;;;;;;4.43;3.27;;;7.70;99.90;;;;;;5015107;28;20457;-70
2022/04/12 02:12:01;;;;;;;4.80;3.47;;;7.70;99.90;;;;;;5009484;28;20586;-70
2022/04/12 02:14:48;;;;;;;5.03;3.33;;;7.70;99.90;;;;;;5011441;28;20477;-70
2022/04/12 02:17:33;;;;;;;4.37;3.50;;;7.70;99.90;;;;;;5012278;28;20423;-70
2022/04/12 02:20:19;;;;;;;4.57;3.43;;;7.60;99.90;;;;;;5017088;28;20443;-70
2022/04/12 02:23:04;;;;;;;7.93;3.60;;;7.60;99.90;;;;;;5013207;28;20515;-73
2022/04/12 02:25:50;;;;;;;4.90;3.90;;;7.50;99.90;;;;;;5013114;28;20413;-70
2022/04/12 02:28:35;;;;;;;4.53;3.57;;;7.50;99.90;;;;;;5014324;28;20889;-71
2022/04/12 02:31:22;;;;;;;5.10;3.80;;;7.30;99.90;;;;;;5012783;28;20594;-70
2022/04/12 02:34:08;;;;;;;5.23;3.40;;;7.30;99.90;;;;;;5011942;28;20539;-69
2022/04/12 02:36:54;;;;;;;4.80;3.37;;;7.30;99.90;;;;;;5010504;28;20528;-70
2022/04/12 02:39:39;;;;;;;9.13;4.53;;;7.40;99.90;;;;;;5009499;28;20741;-70
2022/04/12 02:42:25;;;;;;;3.90;2.83;;;7.40;99.90;;;;;;5008769;28;20446;-70
2022/04/12 02:45:11;;;;;;;6.80;3.07;;;7.50;99.90;;;;;;5008428;28;20974;-71
2022/04/12 02:47:58;;;;;;;3.90;2.80;;;7.40;99.90;;;;;;5015865;28;20802;-71
2022/04/12 02:50:44;;;;;;;5.00;3.57;;;7.30;99.90;;;;;;5011318;28;20485;-70
2022/04/12 02:53:29;;;;;;;6.13;4.00;;;7.40;99.90;;;;;;5011693;28;21002;-69
2022/04/12 02:56:15;;;;;;;5.27;3.60;;;7.40;99.90;;;;;;5011322;28;20853;-69
2022/04/12 02:59:00;;;;;;;5.63;3.87;;;7.40;99.90;;;;;;5008451;28;20453;-69
2022/04/12 03:01:46;;;;;;;5.43;3.60;;;7.40;99.90;;;;;;5012765;28;20489;-70
2022/04/12 03:04:33;;;;;;;4.87;4.07;;;7.40;99.90;;;;;;5009013;28;20443;-71
2022/04/12 03:07:19;;;;;;;5.20;2.93;;;7.40;99.90;;;;;;5012707;28;20415;-70
2022/04/12 03:10:06;;;;;;;10.47;4.37;;;7.50;99.90;;;;;;5006377;28;20567;-73
2022/04/12 03:12:51;;;;;;;7.30;4.03;;;7.40;99.90;;;;;;5013300;28;21129;-72
2022/04/12 03:15:37;;;;;;;5.07;3.60;;;7.40;99.90;;;;;;5012849;28;20525;-70
2022/04/12 03:18:23;;;;;;;6.27;3.70;;;7.40;99.90;;;;;;5008992;28;20483;-70
2022/04/12 03:21:10;;;;;;;5.07;3.43;;;7.30;99.90;;;;;;5007667;28;20932;-70
2022/04/12 03:23:55;;;;;;;6.20;4.17;;;7.20;99.90;;;;;;5016818;28;20442;-71
2022/04/12 03:26:41;;;;;;;5.60;4.00;;;7.20;99.90;;;;;;5011853;28;20433;-69
2022/04/12 03:29:27;;;;;;;10.47;4.27;;;7.20;99.90;;;;;;5010458;28;20504;-71
2022/04/12 03:32:13;;;;;;;4.67;3.20;;;7.20;99.90;;;;;;5014516;28;20438;-70
2022/04/12 03:34:58;;;;;;;6.73;3.43;;;7.30;99.90;;;;;;5010832;28;20449;-71
2022/04/12 03:37:45;;;;;;;5.30;3.73;;;7.30;99.90;;;;;;5011030;28;20391;-71
2022/04/12 03:40:32;;;;;;;6.77;3.80;;;7.20;99.90;;;;;;5009179;28;20484;-70
2022/04/12 03:43:17;;;;;;;8.23;4.10;;;7.20;99.90;;;;;;5012118;28;20969;-73
2022/04/12 03:46:03;;;;;;;5.10;3.73;;;7.10;99.90;;;;;;5013385;28;20424;-71
2022/04/12 03:48:49;;;;;;;4.83;3.27;;;7.10;99.90;;;;;;5005910;28;22315;-71
2022/04/12 03:51:35;;;;;;;4.93;3.77;;;7.20;99.90;;;;;;5010236;28;20473;-70
2022/04/12 03:54:22;;;;;;;5.17;3.57;;;7.10;99.90;;;;;;5010706;28;20563;-71
2022/04/12 03:57:08;;;;;;;7.00;3.40;;;7.20;99.90;;;;;;5010376;28;20541;-70
2022/04/12 03:59:53;;;;;;;7.77;3.73;;;7.10;99.90;;;;;;5009862;28;20421;-71
2022/04/12 04:02:39;;;;;;;5.33;3.63;;;7.00;99.90;;;;;;5011754;28;20458;-70
2022/04/12 04:05:25;;;;;;;4.47;3.00;;;6.90;99.90;;;;;;5007635;28;20464;-70
2022/04/12 04:08:11;;;;;;;5.07;3.23;;;7.00;99.90;;;;;;5008359;28;20457;-70
2022/04/12 04:10:58;;;;;;;5.40;3.30;;;7.00;99.90;;;;;;5019538;28;20802;-70
2022/04/12 04:13:43;;;;;;;4.70;3.60;;;7.10;99.90;;;;;;5010190;28;20833;-70
2022/04/12 04:16:29;;;;;;;13.23;4.00;;;7.20;99.90;;;;;;5020530;28;20431;-70
2022/04/12 04:19:14;;;;;;;5.23;3.50;;;7.20;99.90;;;;;;5011184;28;20454;-70
2022/04/12 04:22:01;;;;;;;4.70;4.00;;;7.20;99.90;;;;;;5012275;28;20441;-69
2022/04/12 04:24:47;;;;;;;5.63;3.57;;;7.20;99.90;;;;;;5011151;28;20966;-70
2022/04/12 04:27:34;;;;;;;7.40;3.70;;;7.10;99.90;;;;;;5007541;28;20586;-69
2022/04/12 04:30:20;;;;;;;4.27;3.73;;;7.20;99.90;;;;;;5009622;28;20490;-71
2022/04/12 04:33:08;;;;;;;7.70;3.83;;;7.00;99.90;;;;;;5015228;28;20435;-70
2022/04/12 04:35:53;;;;;;;5.17;3.30;;;7.00;99.90;;;;;;5014254;28;20922;-70
2022/04/12 04:38:39;;;;;;;5.90;3.60;;;6.90;99.90;;;;;;5006579;28;20551;-70
2022/04/12 04:41:25;;;;;;;4.20;3.27;;;6.90;99.90;;;;;;5014271;28;20413;-71
2022/04/12 04:44:12;;;;;;;8.23;5.23;;;6.90;99.90;;;;;;5008661;28;20835;-72
2022/04/12 04:46:58;;;;;;;6.87;4.23;;;7.00;99.90;;;;;;5010747;28;20975;-70
2022/04/12 04:49:44;;;;;;;5.73;3.73;;;7.00;99.90;;;;;;5010199;28;20989;-70
2022/04/12 04:52:29;;;;;;;5.10;4.30;;;7.00;99.90;;;;;;5008819;28;20501;-73
2022/04/12 04:55:16;;;;;;;5.20;3.63;;;7.00;99.90;;;;;;5009592;28;20415;-71
2022/04/12 04:58:02;;;;;;;4.43;3.50;;;7.10;99.90;;;;;;5006732;28;20982;-69
2022/04/12 05:00:49;;;;;;;6.23;3.33;;;7.10;99.90;;;;;;5009309;28;20471;-70
2022/04/12 05:03:34;;;;;;;5.50;3.80;;;7.00;99.90;;;;;;5010898;28;20470;-70
2022/04/12 05:06:21;;;;;;;11.37;3.63;;;7.00;99.90;;;;;;5011084;28;20514;-72
2022/04/12 05:09:06;;;;;;;8.53;3.37;;;7.10;99.90;;;;;;5009191;28;20521;-70
2022/04/12 05:11:52;;;;;;;6.33;3.97;;;7.10;99.90;;;;;;5008866;28;20428;-69
2022/04/12 05:14:38;;;;;;;5.90;3.83;;;6.90;99.90;;;;;;5010328;28;20469;-71
2022/04/12 05:17:29;;;;;;;5.13;3.37;;;7.00;99.90;;;;;;5008616;28;20461;-69
2022/04/12 05:20:14;;;;;;;7.10;3.30;;;7.00;99.90;;;;;;5007110;28;20482;-70
2022/04/12 05:23:00;;;;;;;6.37;3.97;;;7.10;99.90;;;;;;5012329;28;20572;-70
2022/04/12 05:25:46;;;;;;;6.13;3.90;;;7.20;99.90;;;;;;5008469;28;20420;-72
2022/04/12 05:28:31;;;;;;;7.47;3.57;;;7.10;99.90;;;;;;5006669;28;20453;-71
2022/04/12 05:31:17;;;;;;;5.10;3.63;;;7.20;99.90;;;;;;5007616;28;20557;-70
2022/04/12 05:34:04;;;;;;;7.83;3.57;;;7.10;99.90;;;;;;5015354;28;20530;-70
2022/04/12 05:36:49;;;;;;;9.40;3.33;;;7.30;99.90;;;;;;5005690;28;20421;-69
2022/04/12 05:39:35;;;;;;;5.63;3.70;;;7.30;99.90;;;;;;5008467;28;20543;-72
2022/04/12 05:42:21;;;;;;;9.80;3.80;;;7.40;99.90;;;;;;5009591;28;20413;-69
2022/04/12 05:45:08;;;;;;;5.63;3.43;;;7.50;99.90;;;;;;5012649;28;20790;-71
2022/04/12 05:47:54;;;;;;;6.70;3.63;;;7.70;99.90;;;;;;5003229;28;20963;-70
2022/04/12 05:50:41;;;;;;;4.67;2.77;;;7.80;99.90;;;;;;5013913;28;20613;-69
2022/04/12 05:53:28;;;;;;;7.37;3.60;;;7.90;99.90;;;;;;5012791;28;20453;-70
2022/04/12 05:56:14;;;;;;;4.67;3.40;;;7.90;99.90;;;;;;5005390;28;20430;-70
2022/04/12 05:58:59;;;;;;;5.27;3.20;;;8.10;99.90;;;;;;5009834;28;20544;-70
2022/04/12 06:01:45;;;;;;;5.60;3.73;;;8.20;99.90;;;;;;5009752;28;20411;-70
2022/04/12 06:04:31;;;;;;;4.90;3.27;;;8.30;99.90;;;;;;5013367;28;20588;-69
2022/04/12 06:07:18;;;;;;;6.60;3.87;;;8.40;99.90;;;;;;5008607;28;20407;-70
2022/04/12 06:10:04;;;;;;;9.13;4.63;;;8.60;99.90;;;;;;5007760;28;20626;-71
2022/04/12 06:12:52;;;;;;;13.87;6.63;;;8.70;99.90;;;;;;5010326;28;20584;-71
2022/04/12 06:15:38;;;;;;;20.77;6.40;;;8.80;99.90;;;;;;5035181;22;20471;-88
2022/04/12 06:18:23;;;;;;;12.57;6.33;;;8.90;99.90;;;;;;5027704;28;20479;-88
2022/04/12 06:21:09;;;;;;;11.23;6.00;;;9.10;99.90;;;;;;5035230;28;20474;-87
2022/04/12 06:23:57;;;;;;;12.20;5.13;;;9.20;99.90;;;;;;5034096;28;20570;-87
2022/04/12 06:26:42;;;;;;;8.27;5.53;;;9.30;99.90;;;;;;5025037;28;20430;-88
2022/04/12 06:29:28;;;;;;;6.70;4.60;;;9.50;99.90;;;;;;5036528;28;20454;-87
2022/04/12 06:32:14;;;;;;;6.50;4.37;;;9.60;99.90;;;;;;5028731;28;20814;-87
2022/04/12 06:35:00;;;;;;;14.20;5.07;;;9.70;99.90;;;;;;5031781;28;20816;-88
2022/04/12 06:37:47;;;;;;;5.03;3.80;;;9.90;99.90;;;;;;5031906;28;20453;-87
2022/04/12 06:40:35;;;;;;;5.13;3.83;;;10.10;99.90;;;;;;5038882;28;20488;-88
2022/04/12 06:43:21;;;;;;;10.80;6.57;;;10.30;99.90;;;;;;5029550;28;20388;-87
2022/04/12 06:46:06;;;;;;;5.13;3.60;;;10.50;99.90;;;;;;5023787;28;20954;-87
2022/04/12 06:48:53;;;;;;;7.83;3.70;;;10.70;99.90;;;;;;5027335;28;20833;-88
2022/04/12 06:51:41;;;;;;;7.30;4.70;;;10.80;99.90;;;;;;5037168;28;20476;-88
2022/04/12 06:54:27;;;;;;;6.37;4.40;;;11.00;99.90;;;;;;5032225;28;20464;-88
2022/04/12 06:57:14;;;;;;;5.80;3.87;;;11.10;99.90;;;;;;5031373;28;20454;-88
2022/04/12 07:00:00;;;;;;;6.30;4.00;;;11.30;99.90;;;;;;5034694;28;20482;-88
2022/04/12 07:02:46;;;;;;;6.63;3.37;;;11.60;97.80;;;;;;5030503;28;20471;-88
2022/04/12 07:05:32;;;;;;;5.50;3.20;;;11.80;93.40;;;;;;5032030;28;21118;-88
2022/04/12 07:08:17;;;;;;;5.67;3.40;;;12.00;89.60;;;;;;5029470;28;20475;-88
2022/04/12 07:11:03;;;;;;;4.67;3.00;;;12.20;83.20;;;;;;5033065;28;20471;-87
2022/04/12 07:13:50;;;;;;;5.93;3.40;;;12.40;82.60;;;;;;5035511;28;20393;-88
2022/04/12 07:16:36;;;;;;;5.70;3.20;;;12.60;81.70;;;;;;5031506;28;20490;-88
2022/04/12 07:19:22;;;;;;;6.97;2.70;;;12.80;74.20;;;;;;5034413;28;20455;-88
2022/04/12 07:22:09;;;;;;;5.17;3.10;;;12.90;68.80;;;;;;5036931;28;20532;-88
2022/04/12 07:24:54;;;;;;;5.00;2.50;;;13.00;65.20;;;;;;5034805;28;20445;-88
2022/04/12 07:27:40;;;;;;;4.53;2.50;;;13.20;62.30;;;;;;5037795;28;20518;-88
2022/04/12 07:30:27;;;;;;;6.13;2.57;;;13.30;61.30;;;;;;5037111;28;20463;-88
2022/04/12 07:33:13;;;;;;;3.70;2.97;;;13.40;58.30;;;;;;5039983;28;20466;-89
2022/04/12 07:35:59;;;;;;;4.53;2.73;;;13.60;63.70;;;;;;5032212;28;20448;-89
2022/04/12 07:38:44;;;;;;;7.00;2.77;;;13.70;63.40;;;;;;5032317;28;20453;-89
2022/04/12 07:41:30;;;;;;;3.70;2.10;;;13.80;62.30;;;;;;5036740;28;20473;-89
2022/04/12 07:44:17;;;;;;;3.53;2.37;;;13.90;62.40;;;;;;5035352;28;20526;-88
2022/04/12 07:47:04;;;;;;;4.47;2.53;;;14.00;60.50;;;;;;5032546;28;20971;-88
2022/04/12 07:49:49;;;;;;;5.20;2.30;;;14.10;55.30;;;;;;5036135;28;20498;-87
2022/04/12 07:52:35;;;;;;;4.77;2.60;;;14.10;56.50;;;;;;5034900;28;20498;-87
2022/04/12 07:55:21;;;;;;;5.47;2.60;;;14.10;57.50;;;;;;5027476;28;20502;-87
2022/04/12 07:58:07;;;;;;;3.43;2.03;;;14.20;56.90;;;;;;5035529;28;20423;-87
2022/04/12 08:00:53;;;;;;;3.80;1.97;;;14.20;52.60;;;;;;5030806;28;20943;-87
2022/04/12 08:03:41;;;;;;;3.00;2.00;;;14.30;53.20;;;;;;5038462;28;20462;-88
2022/04/12 08:06:26;;;;;;;3.40;1.90;;;14.40;53.90;;;;;;5026300;28;21011;-88
2022/04/12 08:09:12;;;;;;;4.03;2.50;;;14.60;55.40;;;;;;5037101;28;20917;-87
2022/04/12 08:11:57;;;;;;;3.73;2.20;;;14.70;55.00;;;;;;5034885;28;20812;-87
2022/04/12 08:14:43;;;;;;;3.20;1.80;;;14.80;51.50;;;;;;5032046;28;20576;-87
2022/04/12 08:17:29;;;;;;;3.27;2.30;;;14.90;54.50;;;;;;5034025;28;20587;-87
2022/04/12 08:20:16;;;;;;;3.80;2.10;;;15.00;53.50;;;;;;5033375;28;20461;-87
2022/04/12 08:23:02;;;;;;;4.20;1.70;;;15.20;51.40;;;;;;5031469;28;21370;-88
2022/04/12 08:25:48;;;;;;;3.63;1.73;;;15.30;52.60;;;;;;5027704;28;20557;-87
2022/04/12 08:28:34;;;;;;;4.20;2.20;;;15.50;51.90;;;;;;5032414;28;20444;-87
2022/04/12 08:31:19;;;;;;;2.37;1.63;;;15.60;51.80;;;;;;5030457;28;20447;-87
2022/04/12 08:34:05;;;;;;;2.63;1.70;;;15.70;50.80;;;;;;5032169;28;20395;-88
2022/04/12 08:36:52;;;;;;;2.50;1.90;;;15.80;51.00;;;;;;5026334;28;20432;-87
2022/04/12 08:39:38;;;;;;;3.00;1.87;;;15.90;48.90;;;;;;5028086;28;20576;-87
2022/04/12 08:42:23;;;;;;;5.10;2.17;;;16.10;48.00;;;;;;5034084;28;20417;-89
2022/04/12 08:45:09;;;;;;;5.97;2.23;;;16.10;48.60;;;;;;5024122;28;20473;-88
2022/04/12 08:47:56;;;;;;;4.07;2.00;;;16.20;47.50;;;;;;5030321;28;20448;-88
2022/04/12 08:50:42;;;;;;;3.40;1.93;;;16.30;49.00;;;;;;5033108;28;20448;-88
2022/04/12 08:53:30;;;;;;;4.00;1.80;;;16.40;47.70;;;;;;5030878;28;20391;-88
2022/04/12 08:56:16;;;;;;;3.30;1.80;;;16.60;44.40;;;;;;5013600;28;20527;-87
2022/04/12 08:59:04;;;;;;;5.00;2.00;;;16.60;45.30;;;;;;5018167;28;20456;-88
2022/04/12 09:01:50;;;;;;;2.20;1.30;;;16.70;46.20;;;;;;5028893;28;20416;-88
2022/04/12 09:04:36;;;;;;;2.60;1.47;;;16.90;42.70;;;;;;5031200;28;20419;-88
2022/04/12 09:07:26;;;;;;;3.10;1.57;;;17.00;44.30;;;;;;5031167;28;20468;-88
2022/04/12 09:10:13;;;;;;;7.07;2.00;;;17.10;44.40;;;;;;5027247;28;21088;-88
2022/04/12 09:13:20;;;;;;;2.90;1.40;;;17.20;45.90;;;;;;5028960;28;20471;-88
2022/04/12 09:16:11;;;;;;;3.93;1.47;;;17.30;43.10;;;;;;5022028;28;20457;-88
2022/04/12 09:18:57;;;;;;;4.57;1.43;;;17.30;43.30;;;;;;5029039;28;20424;-87
2022/04/12 09:21:47;;;;;;;2.73;1.57;;;17.50;41.60;;;;;;5027293;28;20435;-88
2022/04/12 09:24:32;;;;;;;4.33;1.50;;;17.60;41.90;;;;;;5024169;28;20451;-88
2022/04/12 09:27:21;;;;;;;6.80;1.90;;;17.70;40.40;;;;;;5024510;28;20559;-88
2022/04/12 09:30:09;;;;;;;3.33;1.90;;;17.80;37.30;;;;;;5021562;28;20507;-88
2022/04/12 09:32:56;;;;;;;3.40;1.57;;;17.80;39.00;;;;;;5028654;28;20576;-88
2022/04/12 09:35:41;;;;;;;3.23;2.40;;;17.80;39.70;;;;;;5023745;28;20499;-88
2022/04/12 09:38:32;;;;;;;2.43;1.27;;;18.00;37.50;;;;;;5031250;28;20463;-88
2022/04/12 09:41:20;;;;;;;2.77;1.30;;;18.00;37.50;;;;;;5033013;28;20436;-88
2022/04/12 09:44:08;;;;;;;2.53;1.43;;;18.10;37.60;;;;;;5025273;28;20449;-89
2022/04/12 09:46:57;;;;;;;4.53;1.60;;;18.20;38.00;;;;;;5035863;28;20411;-88
2022/04/12 09:49:46;;;;;;;6.00;1.47;;;18.30;38.40;;;;;;5024949;28;20620;-88
2022/04/12 09:52:32;;;;;;;5.30;1.70;;;18.40;37.90;;;;;;5029996;28;20563;-88
2022/04/12 09:55:33;;;;;;;3.00;1.33;;;18.50;38.00;;;;;;5024199;28;20496;-88
2022/04/12 09:58:21;;;;;;;2.90;1.73;;;18.70;40.30;;;;;;5022671;28;20448;-88
2022/04/12 10:01:10;;;;;;;3.50;1.00;;;18.80;35.70;;;;;;5030679;28;20480;-87
2022/04/12 10:03:57;;;;;;;2.53;1.33;;;18.90;36.60;;;;;;5022773;28;20929;-88
2022/04/12 10:06:43;;;;;;;4.17;1.87;;;19.20;38.10;;;;;;5030760;28;20990;-89
2022/04/12 10:09:31;;;;;;;3.00;1.50;;;19.30;35.40;;;;;;5030031;28;20439;-88
2022/04/12 10:12:18;;;;;;;4.30;1.50;;;19.40;35.60;;;;;;5031908;28;21008;-87
2022/04/12 10:15:04;;;;;;;7.40;1.27;;;19.60;30.70;;;;;;5019853;28;20463;-89
2022/04/12 10:17:51;;;;;;;4.77;1.73;;;19.80;29.80;;;;;;5023654;28;20444;-89
2022/04/12 10:20:37;;;;;;;3.17;1.43;;;19.80;32.50;;;;;;5030701;28;21235;-89
2022/04/12 10:23:26;;;;;;;4.40;1.70;;;20.00;32.70;;;;;;5028542;28;20871;-90
2022/04/12 10:26:12;;;;;;;2.60;1.10;;;20.10;31.20;;;;;;5031109;28;20421;-89
2022/04/12 10:29:00;;;;;;;2.33;1.20;;;20.20;29.80;;;;;;5028349;28;20953;-88
2022/04/12 10:31:56;;;;;;;3.70;1.10;;;20.40;29.60;;;;;;5031327;28;20456;-88
2022/04/12 10:35:01;;;;;;;3.70;1.10;;;20.50;32.20;;;;;;5031003;28;20517;-88
2022/04/12 10:37:47;;;;;;;2.80;1.20;;;20.60;32.80;;;;;;5027369;28;20455;-88
2022/04/12 10:40:35;;;;;;;2.10;0.80;;;20.70;30.30;;;;;;5031500;28;21120;-88
2022/04/12 10:43:29;;;;;;;1.67;0.77;;;20.80;29.20;;;;;;5028941;28;20543;-88
2022/04/12 10:46:14;;;;;;;2.63;1.30;;;20.90;28.40;;;;;;5031113;28;20444;-88
2022/04/12 10:49:07;;;;;;;2.70;1.10;;;21.00;28.70;;;;;;5030686;28;20976;-88
2022/04/12 10:52:00;;;;;;;3.23;1.10;;;21.20;30.10;;;;;;5031337;28;20835;-88
2022/04/12 10:54:49;;;;;;;5.27;1.60;;;21.30;29.40;;;;;;5027378;28;20872;-88
2022/04/12 10:57:35;;;;;;;2.80;1.30;;;21.50;28.90;;;;;;5033852;28;20429;-88
2022/04/12 11:00:22;;;;;;;4.07;1.47;;;21.80;27.90;;;;;;5034599;28;20547;-89
2022/04/12 11:03:08;;;;;;;2.90;1.27;;;21.90;27.70;;;;;;5030295;28;21088;-88
2022/04/12 11:05:55;;;;;;;3.50;1.00;;;22.00;28.00;;;;;;5030069;28;20420;-89
2022/04/12 11:08:48;;;;;;;2.83;1.47;;;22.10;27.00;;;;;;5031400;28;20468;-88
2022/04/12 11:11:39;;;;;;;2.10;1.20;;;22.20;27.00;;;;;;5031191;28;20448;-89
2022/04/12 11:14:27;;;;;;;3.67;2.00;;;22.30;27.50;;;;;;5027763;28;20969;-88
2022/04/12 11:17:13;;;;;;;2.17;1.07;;;22.50;26.50;;;;;;5038553;28;20545;-88
2022/04/12 11:20:00;;;;;;;4.33;1.10;;;22.60;27.10;;;;;;5032276;28;20833;-91
2022/04/12 11:22:53;;;;;;;2.23;1.03;;;22.80;27.30;;;;;;5029064;28;20588;-87
2022/04/12 11:25:51;;;;;;;2.67;1.00;;;22.80;26.00;;;;;;5030105;28;20439;-88
2022/04/12 11:28:37;;;;;;;4.63;1.47;;;22.90;26.40;;;;;;5033937;28;20432;-88
2022/04/12 11:31:23;;;;;;;20.13;1.40;;;22.90;28.80;;;;;;5030818;28;20928;-88
2022/04/12 11:34:09;;;;;;;2.07;1.00;;;23.10;25.00;;;;;;5029317;28;20486;-87
2022/04/12 11:36:56;;;;;;;2.87;1.17;;;22.90;25.20;;;;;;5028377;28;20426;-88
2022/04/12 11:39:44;;;;;;;2.47;0.80;;;23.00;24.90;;;;;;5031914;28;20453;-88
2022/04/12 11:42:31;;;;;;;3.10;1.40;;;23.00;25.50;;;;;;5029001;28;20828;-88
2022/04/12 11:45:16;;;;;;;2.33;1.20;;;23.10;26.50;;;;;;5032608;28;20571;-88
2022/04/12 11:48:02;;;;;;;4.87;1.30;;;23.10;25.70;;;;;;5031601;28;20816;-88
2022/04/12 11:50:52;;;;;;;2.33;1.20;;;23.20;28.20;;;;;;5026801;28;20541;-88
2022/04/12 11:53:47;;;;;;;3.13;1.20;;;23.30;28.60;;;;;;5024399;28;20483;-88
2022/04/12 11:56:32;;;;;;;3.90;1.40;;;23.30;24.70;;;;;;5030263;28;20461;-88
2022/04/12 11:59:20;;;;;;;3.83;1.40;;;23.40;26.40;;;;;;5028474;28;20497;-88
2022/04/12 12:02:07;;;;;;;3.60;1.00;;;23.60;26.90;;;;;;5028004;28;20545;-89
2022/04/12 12:04:56;;;;;;;3.67;1.40;;;23.70;27.30;;;;;;5026966;28;20448;-88
2022/04/12 12:07:41;;;;;;;2.63;1.23;;;23.40;24.20;;;;;;5031555;28;20440;-88
2022/04/12 12:10:31;;;;;;;2.40;1.00;;;23.40;25.60;;;;;;5033048;28;20476;-88
2022/04/12 12:13:17;;;;;;;3.23;1.20;;;23.30;24.50;;;;;;5024026;28;21175;-88
2022/04/12 12:16:13;;;;;;;2.47;1.10;;;23.20;24.80;;;;;;5032466;28;20584;-88
2022/04/12 12:19:01;;;;;;;6.13;1.43;;;23.30;26.30;;;;;;5027770;28;20441;-88
2022/04/12 12:21:47;;;;;;;3.10;1.40;;;23.40;28.00;;;;;;5028777;28;20445;-88
2022/04/12 12:24:37;;;;;;;3.40;1.20;;;23.50;26.80;;;;;;5029586;28;20448;-88
2022/04/12 12:27:30;;;;;;;3.50;1.43;;;23.60;27.50;;;;;;5032172;28;20453;-88
2022/04/12 12:30:18;;;;;;;2.67;1.40;;;23.80;25.90;;;;;;5027423;28;20448;-88
2022/04/12 12:33:05;;;;;;;2.53;1.47;;;23.80;26.40;;;;;;5027371;28;21052;-89
2022/04/12 12:35:51;;;;;;;2.37;1.10;;;23.70;25.70;;;;;;5031996;28;20424;-89
2022/04/12 12:38:44;;;;;;;3.10;1.27;;;23.70;26.20;;;;;;5031065;28;20444;-88
2022/04/12 12:41:31;;;;;;;2.60;1.27;;;23.50;25.00;;;;;;5027862;28;20539;-88
2022/04/12 12:44:17;;;;;;;3.10;1.17;;;23.20;25.40;;;;;;5031236;28;20433;-88
2022/04/12 12:47:04;;;;;;;3.20;1.03;;;22.90;25.50;;;;;;5028986;28;20452;-88
2022/04/12 12:49:52;;;;;;;2.43;1.03;;;22.90;27.10;;;;;;5034405;28;20534;-88
2022/04/12 12:52:38;;;;;;;5.33;1.37;;;23.00;25.80;;;;;;5028864;28;21094;-87
2022/04/12 12:55:23;;;;;;;3.03;1.50;;;23.00;26.10;;;;;;5030999;28;20828;-88
2022/04/12 12:58:12;;;;;;;3.17;1.10;;;22.90;25.90;;;;;;5025907;28;20540;-88
2022/04/12 13:01:03;;;;;;;6.90;1.17;;;22.90;27.70;;;;;;5024037;28;20480;-88
2022/04/12 13:03:56;;;;;;;3.90;1.17;;;23.00;27.90;;;;;;5031102;28;20428;-88
2022/04/12 13:06:42;;;;;;;10.07;1.57;;;23.10;26.50;;;;;;5033374;28;20465;-88
2022/04/12 13:09:28;;;;;;;3.80;1.20;;;23.10;26.70;;;;;;5030521;28;20444;-88
2022/04/12 13:12:15;;;;;;;2.63;1.20;;;23.30;26.80;;;;;;5027882;28;20592;-88
2022/04/12 13:15:01;;;;;;;2.90;1.37;;;23.50;29.30;;;;;;5025646;28;20611;-88
2022/04/12 13:17:47;;;;;;;3.30;1.30;;;23.60;27.50;;;;;;5031080;28;20444;-88
2022/04/12 13:20:33;;;;;;;4.33;1.60;;;23.90;28.80;;;;;;5027738;28;20981;-88
2022/04/12 13:23:20;;;;;;;2.63;1.20;;;24.10;28.00;;;;;;5034395;28;20575;-87
2022/04/12 13:26:05;;;;;;;6.17;1.57;;;24.40;27.60;;;;;;5029853;28;20455;-88
2022/04/12 13:28:51;;;;;;;2.90;1.20;;;24.60;26.80;;;;;;5030928;28;20969;-88
2022/04/12 13:31:37;;;;;;;3.73;1.17;;;24.70;24.60;;;;;;5028021;28;20451;-88
2022/04/12 13:34:22;;;;;;;2.60;1.30;;;24.80;26.40;;;;;;5031244;28;20511;-88
2022/04/12 13:37:08;;;;;;;5.40;1.07;;;25.00;27.50;;;;;;5032991;28;20452;-88
2022/04/12 13:39:55;;;;;;;3.43;1.20;;;25.10;26.50;;;;;;5027291;28;20484;-89
2022/04/12 13:42:45;;;;;;;3.10;1.43;;;25.10;25.90;;;;;;5028847;28;20444;-89
2022/04/12 13:45:30;;;;;;;2.50;1.30;;;25.10;26.50;;;;;;5028279;28;20441;-88
2022/04/12 13:48:16;;;;;;;2.50;1.27;;;25.00;26.40;;;;;;5029783;28;21037;-88
2022/04/12 13:51:02;;;;;;;3.73;1.60;;;25.00;25.50;;;;;;5025330;28;20588;-90
2022/04/12 13:53:47;;;;;;;3.40;1.30;;;25.00;26.20;;;;;;5030163;28;20460;-90
2022/04/12 13:56:34;;;;;;;4.57;1.13;;;24.90;26.20;;;;;;5028323;28;20424;-89
2022/04/12 13:59:20;;;;;;;3.40;1.50;;;24.80;25.60;;;;;;5032915;28;20449;-89
2022/04/12 14:02:05;;;;;;;2.77;1.20;;;24.80;25.20;;;;;;5027424;28;20596;-88
2022/04/12 14:04:51;;;;;;;5.13;1.70;;;24.80;26.60;;;;;;5035033;28;20500;-88
2022/04/12 14:07:37;;;;;;;4.80;1.37;;;24.70;24.90;;;;;;5034503;28;20800;-88
2022/04/12 14:10:22;;;;;;;2.80;1.20;;;24.70;25.30;;;;;;5030064;28;20480;-89
2022/04/12 14:13:10;;;;;;;3.20;1.20;;;24.70;25.80;;;;;;5030682;28;20546;-88
2022/04/12 14:15:56;;;;;;;4.00;1.60;;;24.50;26.00;;;;;;5034544;28;20964;-88
2022/04/12 14:18:42;;;;;;;3.20;1.50;;;24.40;25.60;;;;;;5031649;28;20455;-88
2022/04/12 14:21:27;;;;;;;2.13;1.27;;;24.30;26.70;;;;;;5029261;28;20488;-88
2022/04/12 14:24:14;;;;;;;3.03;1.53;;;24.20;27.30;;;;;;5032834;28;20444;-88
2022/04/12 14:26:59;;;;;;;3.33;1.33;;;24.10;26.60;;;;;;5036038;28;20460;-88
2022/04/12 14:29:48;;;;;;;2.83;1.20;;;24.10;27.10;;;;;;5033310;28;21011;-88
2022/04/12 14:32:33;;;;;;;2.60;1.20;;;24.00;26.30;;;;;;5019121;28;21132;-89
2022/04/12 14:35:19;;;;;;;4.80;1.23;;;24.00;26.30;;;;;;5031948;28;20576;-89